• Join FlightAware (Why Join?)
  • Login
  • US Flag 
01:26PM EDT


 

Airport Tracker/Info


-or-


 

Live Flight TrackerFlight Track Log ✈ FLG3862 ✈ 14-Apr-2013 ✈ KDTW - KBTV

Flight Track Log - Related Links

Times and Time Zones

All times are in EDT time to prevent confusion due to time zone crossing. See the FLG3862 flight status page for this flight to view local times or setup timezone preferences in your user account.

Time Position Orientation Groundspeed Altitude Reporting Facility
EDT Latitude Longitude Course Direction KTS MPH feet Rate Location/Type
10:36AM 42.2069 -83.3519 198° South 170 196 1,100  Level FAA TRACON SMA TRACON (SMA)
10:36AM 42.1911 -83.3589 198° South 174 200 2,100 2,520 Climbing FAA TRACON SMA TRACON (SMA)
10:36AM 42.1761 -83.3567 174° South 193 222 2,800 2,520 Climbing FAA TRACON SMA TRACON (SMA)
10:37AM 42.1558 -83.3536 174° South 203 234 3,800 2,520 Climbing FAA TRACON SMA TRACON (SMA)
10:37AM 42.1372 -83.3506 173° South 225 259 4,500 1,500 Climbing FAA TRACON SMA TRACON (SMA)
10:37AM 42.1208 -83.3475 172° South 249 287 4,800 2,220 Climbing FAA TRACON SMA TRACON (SMA)
10:38AM 42.0919 -83.3297 155° Southeast 268 308 6,000 2,400 Climbing FAA TRACON SMA TRACON (SMA)
10:38AM 42.0819 -83.3083 122° Southeast 300 345 6,300 2,100 Climbing Cleveland Center
10:39AM 42.0783 -83.1933 92° East 328 377 8,800 2,100 Climbing Cleveland Center
10:40AM 42.1181 -83.0969 61° Northeast 335 386 10,600 1,620 Climbing Cleveland Center
10:41AM 42.1642 -82.9783 62° Northeast 351 404 12,100 1,560 Climbing Cleveland Center
10:42AM 42.2147 -82.8511 62° Northeast 361 415 13,800 1,440 Climbing Cleveland Center
10:43AM 42.2653 -82.7211 62° Northeast 373 429 15,000 1,200 Climbing Cleveland Center
10:44AM 42.3156 -82.5881 63° Northeast 383 441 16,200 1,320 Climbing Cleveland Center
10:45AM 42.3639 -82.4464 65° Northeast 394 453 17,700 1,500 Climbing Cleveland Center
10:46AM 42.3622 -82.2833 91° East 406 467 19,200 1,380 Climbing Cleveland Center
10:47AM 42.3561 -82.1144 93° East 424 488 20,500 1,140 Climbing Cleveland Center
10:48AM 42.3481 -81.9431 94° East 447 514 21,500 1,020 Climbing Cleveland Center
10:49AM 42.3394 -81.7658 94° East 463 533 22,600 1,020 Climbing Cleveland Center
10:50AM 42.3308 -81.5886 94° East 468 539 23,600 960 Climbing Cleveland Center
10:51AM 42.3239 -81.4117 93° East 468 539 24,600 960 Climbing Cleveland Center
10:52AM 42.3144 -81.2289 94° East 478 550 25,600 960 Climbing Cleveland Center
10:53AM 42.3031 -81.0322 94° East 488 562 26,600 1,020 Climbing Cleveland Center
10:54AM 42.3264 -80.8642 79° East 461 531 27,700 1,020 Climbing Cleveland Center
10:55AM 42.3808 -80.7042 65° Northeast 461 531 28,700 600 Climbing Cleveland Center
10:56AM 42.4311 -80.5411 67° East 456 525 29,000 120 Climbing Cleveland Center
10:57AM 42.4850 -80.3747 66° East 467 537 29,000  Level Cleveland Center
10:58AM 42.5389 -80.2028 67° East 487 560 29,000  Level Cleveland Center
10:59AM 42.5944 -80.0306 66° East 494 568 29,000  Level Cleveland Center
11:00AM 42.6539 -79.8519 66° East 502 578 29,000  Level Cleveland Center
11:01AM 42.7067 -79.6733 68° East 502 578 29,000  Level Cleveland Center
11:02AM 42.7636 -79.5000 66° East 502 578 29,000  Level Cleveland Center
11:03AM 42.8139 -79.3267 68° East 497 572 29,000  Level Cleveland Center
11:04AM 42.8681 -79.1500 67° East 497 572 29,000  Level Cleveland Center
11:05AM 42.9200 -78.9758 68° East 497 572 29,000  Level Cleveland Center
11:06AM 42.9736 -78.7983 68° East 497 572 29,000  Level Cleveland Center
11:07AM 43.0250 -78.6236 68° East 497 572 29,000  Level Cleveland Center
11:08AM 43.0761 -78.4458 68° East 497 572 29,000  Level Cleveland Center
11:09AM 43.1269 -78.2706 68° East 497 572 29,000  Level Cleveland Center
11:10AM 43.1775 -78.0922 69° East 497 572 29,000  Level Cleveland Center
11:11AM 43.2300 -77.9192 67° East 497 572 29,000  Level Cleveland Center
11:12AM 43.2800 -77.7431 69° East 497 572 29,000  Level Cleveland Center
11:13AM 43.3275 -77.5667 70° East 497 572 29,000  Level Cleveland Center
11:15AM 43.4086 -77.2853 68° East 504 580 29,000  Level Boston Center
11:16AM 43.4578 -77.1061 69° East 499 574 29,000  Level Boston Center
11:17AM 43.5061 -76.9353 69° East 494 568 29,000  Level Boston Center
11:18AM 43.5547 -76.7581 69° East 494 568 29,000  Level Boston Center
11:19AM 43.6006 -76.5922 69° East 502 578 29,000  Level Boston Center
11:20AM 43.6503 -76.4206 68° East 497 572 29,000  Level Boston Center
11:21AM 43.6983 -76.2397 70° East 497 572 29,000  Level Boston Center
11:22AM 43.7458 -76.0617 70° East 497 572 29,000  Level Boston Center
11:23AM 43.7950 -75.8806 69° East 497 572 29,000  Level Boston Center
11:24AM 43.8514 -75.6647 70° East 497 572 29,000 -480 Level Boston Center
11:25AM 43.9003 -75.4800 70° East 497 572 28,100 -1,440 Descending Boston Center
11:26AM 43.9444 -75.2947 72° East 497 572 26,200 -1,980 Descending Boston Center
11:27AM 43.9928 -75.1094 70° East 503 579 24,200 -1,980 Descending Boston Center
11:28AM 44.0386 -74.9297 70° East 496 571 22,300 -1,860 Descending Boston Center
11:29AM 44.0861 -74.7436 70° East 477 549 20,600 -1,740 Descending Boston Center
11:30AM 44.1269 -74.5775 71° East 464 534 18,900 -1,320 Descending Boston Center
11:31AM 44.1672 -74.4197 70° East 450 518 18,000 -1,080 Descending Boston Center
11:32AM 44.2053 -74.2647 71° East 430 495 16,800 -1,140 Descending Boston Center
11:33AM 44.2408 -74.1208 71° East 414 476 15,800 -1,440 Descending Boston Center
11:34AM 44.2739 -73.9797 72° East 389 448 14,000 -1,860 Descending Boston Center
11:35AM 44.3172 -73.8619 63° Northeast 376 433 12,100 -1,860 Descending Boston Center
11:36AM 44.3581 -73.7525 62° Northeast 348 400 10,300 -1,740 Descending Boston Center
11:37AM 44.3989 -73.6431 62° Northeast 290 334 8,600 -1,380 Descending Boston Center
11:38AM 44.4311 -73.5478 65° Northeast 275 316 7,600 -1,020 Descending Boston Center
11:39AM 44.4653 -73.4581 62° Northeast 261 300 6,700 -1,140 Descending Boston Center
11:40AM 44.4950 -73.3772 63° Northeast 249 287 5,200 -1,740 Descending Boston Center
11:41AM 44.5311 -73.2758 63° Northeast 238 274 2,900 -1,920 Descending Boston Center
11:42AM 44.5047 -73.2056 118° Southeast 201 231 1,500 -1,320 Descending Boston Center
11:43AM 44.4778 -73.1617 131° Southeast 172 198 400 -600 Descending Boston Center
11:44AM 44.4717 -73.1500 126° Southeast 97 112 400  Level Boston Center